createdAt,value
2022-08-12T00:00:39.244Z,3.95
2022-08-12T00:03:07.000Z,3.53
2022-08-12T00:05:36.364Z,3.72
2022-08-12T00:08:03.890Z,3.90
2022-08-12T00:10:31.018Z,3.60
2022-08-12T00:12:58.295Z,4.28
2022-08-12T00:15:26.661Z,3.85
2022-08-12T00:17:54.759Z,4.22
2022-08-12T00:20:21.933Z,4.43
2022-08-12T00:22:58.779Z,4.25
2022-08-12T00:26:19.020Z,4.18
2022-08-12T00:28:36.086Z,4.05
2022-08-12T00:31:03.619Z,3.90
2022-08-12T00:33:35.781Z,4.07
2022-08-12T00:36:32.425Z,4.30
2022-08-12T00:39:03.898Z,4.22
2022-08-12T00:41:32.391Z,4.90
2022-08-12T00:44:00.735Z,4.60
2022-08-12T00:46:59.557Z,4.80
2022-08-12T00:49:29.242Z,4.10
2022-08-12T00:51:59.577Z,4.45
2022-08-12T00:54:27.327Z,4.60
2022-08-12T00:57:02.267Z,4.15
2022-08-12T00:59:29.384Z,3.63
2022-08-12T01:02:00.856Z,4.00
2022-08-12T01:04:40.707Z,4.40
2022-08-12T01:07:08.933Z,3.90
2022-08-12T01:09:36.067Z,4.15
2022-08-12T01:12:05.144Z,3.50
2022-08-12T01:14:32.437Z,3.53
2022-08-12T01:17:00.177Z,3.50
2022-08-12T01:19:27.563Z,3.72
2022-08-12T01:22:11.072Z,3.65
2022-08-12T01:24:53.096Z,3.97
2022-08-12T01:27:22.466Z,3.60
2022-08-12T01:29:52.723Z,3.97
2022-08-12T01:32:22.419Z,4.50
2022-08-12T01:35:02.740Z,4.68
2022-08-12T01:37:31.246Z,4.30
2022-08-12T01:40:34.808Z,4.43
2022-08-12T01:42:51.747Z,3.90
2022-08-12T01:45:22.499Z,3.92
2022-08-12T01:48:09.328Z,4.00
2022-08-12T01:51:00.387Z,4.75
2022-08-12T01:53:56.444Z,4.15
2022-08-12T01:56:25.919Z,4.43
2022-08-12T01:58:57.808Z,4.45
2022-08-12T02:01:29.992Z,4.75
2022-08-12T02:04:06.775Z,3.83
2022-08-12T02:06:56.218Z,3.72
2022-08-12T02:09:39.572Z,3.60
2022-08-12T02:12:22.959Z,3.83
2022-08-12T02:15:23.328Z,3.80
2022-08-12T02:18:14.537Z,3.03
2022-08-12T02:21:13.777Z,3.78
2022-08-12T02:23:42.064Z,3.55
2022-08-12T02:26:12.476Z,3.20
2022-08-12T02:28:39.533Z,3.55
2022-08-12T02:31:08.671Z,3.30
2022-08-12T02:33:37.464Z,3.65
2022-08-12T02:36:06.135Z,4.05
2022-08-12T02:38:33.623Z,3.38
2022-08-12T02:41:04.319Z,3.53
2022-08-12T02:43:48.235Z,3.35
2022-08-12T02:46:20.695Z,3.50
2022-08-12T02:48:51.853Z,3.50
2022-08-12T02:51:30.220Z,2.90
2022-08-12T02:54:03.224Z,3.10
2022-08-12T02:56:37.214Z,2.90
2022-08-12T02:59:04.865Z,3.15
2022-08-12T03:01:33.882Z,3.75
2022-08-12T03:04:05.447Z,3.30
2022-08-12T03:06:38.009Z,3.25
2022-08-12T03:09:06.991Z,3.20
2022-08-12T03:11:50.568Z,3.40
2022-08-12T03:14:18.219Z,3.67
2022-08-12T03:16:52.491Z,3.72
2022-08-12T03:19:21.022Z,4.15
2022-08-12T03:21:54.680Z,3.78
2022-08-12T03:24:40.130Z,3.88
2022-08-12T03:27:09.932Z,3.83
2022-08-12T03:29:43.258Z,3.75
2022-08-12T03:32:35.614Z,3.50
2022-08-12T03:35:05.262Z,4.25
2022-08-12T03:37:35.399Z,4.68
2022-08-12T03:40:02.438Z,4.43
2022-08-12T03:42:37.881Z,4.55
2022-08-12T03:45:27.647Z,5.03
2022-08-12T03:48:01.716Z,6.18
2022-08-12T03:50:30.039Z,6.05
2022-08-12T03:52:57.265Z,7.75
2022-08-12T03:55:24.461Z,8.50
2022-08-12T03:57:51.569Z,8.35
2022-08-12T04:00:24.185Z,7.13
2022-08-12T04:02:56.274Z,7.30
2022-08-12T04:05:23.624Z,7.30
2022-08-12T04:08:11.035Z,6.72
2022-08-12T04:10:39.569Z,5.82
2022-08-12T04:13:06.599Z,6.47
2022-08-12T04:15:33.967Z,5.82
2022-08-12T04:18:06.467Z,5.75
2022-08-12T04:23:03.340Z,5.30
2022-08-12T04:25:32.460Z,6.32
2022-08-12T04:28:09.648Z,5.43
2022-08-12T04:30:41.327Z,6.32
2022-08-12T04:33:09.169Z,6.13
2022-08-12T04:35:36.489Z,6.95
2022-08-12T04:38:04.445Z,7.10
2022-08-12T04:40:33.135Z,5.68
2022-08-12T04:43:00.792Z,5.13
2022-08-12T04:45:28.783Z,5.55
2022-08-12T04:47:56.320Z,6.38
2022-08-12T04:50:27.189Z,5.32
2022-08-12T04:53:04.037Z,5.60
2022-08-12T04:55:31.451Z,5.30
2022-08-12T04:58:00.601Z,6.22
2022-08-12T05:00:28.222Z,6.05
2022-08-12T05:02:55.321Z,7.03
2022-08-12T05:05:23.933Z,6.40
2022-08-12T05:07:54.083Z,6.53
2022-08-12T05:10:33.560Z,6.10
2022-08-12T05:13:07.928Z,6.53
2022-08-12T05:16:02.472Z,6.07
2022-08-12T05:18:25.918Z,5.75
2022-08-12T05:20:58.147Z,5.57
2022-08-12T05:23:25.197Z,6.25
2022-08-12T05:25:52.915Z,5.72
2022-08-12T05:28:19.926Z,5.35
2022-08-12T05:30:47.010Z,4.93
2022-08-12T05:33:14.641Z,5.40
2022-08-12T05:35:44.067Z,5.07
2022-08-12T05:38:13.795Z,4.90
2022-08-12T05:40:41.347Z,5.32
2022-08-12T05:43:08.509Z,5.05
2022-08-12T05:45:35.683Z,5.30
2022-08-12T05:48:03.255Z,4.85
2022-08-12T05:50:30.349Z,4.70
2022-08-12T05:52:57.461Z,4.60
2022-08-12T05:55:29.357Z,4.30
2022-08-12T05:57:58.317Z,3.90
2022-08-12T06:00:26.613Z,3.55
2022-08-12T06:02:54.254Z,3.45
2022-08-12T06:05:21.298Z,2.70
2022-08-12T06:07:59.689Z,2.72
2022-08-12T06:10:31.990Z,2.30
2022-08-12T06:13:06.112Z,2.40
2022-08-12T06:15:35.198Z,2.95
2022-08-12T06:18:04.281Z,2.80
2022-08-12T06:20:39.198Z,2.70
2022-08-12T06:23:09.080Z,2.83
2022-08-12T06:25:36.094Z,3.00
2022-08-12T06:28:07.927Z,2.85
2022-08-12T06:30:39.557Z,3.25
2022-08-12T06:33:24.860Z,3.10
2022-08-12T06:35:57.694Z,3.17
2022-08-12T06:38:27.685Z,3.58
2022-08-12T06:40:59.920Z,2.83
2022-08-12T06:43:27.369Z,2.58
2022-08-12T06:45:55.086Z,3.15
2022-08-12T06:48:22.222Z,2.50
2022-08-12T06:50:49.606Z,2.40
2022-08-12T06:53:16.723Z,2.72
2022-08-12T06:55:57.793Z,2.80
2022-08-12T06:58:26.882Z,2.70
2022-08-12T07:00:54.819Z,2.35
2022-08-12T07:03:23.240Z,2.78
2022-08-12T07:05:51.898Z,2.28
2022-08-12T07:08:19.069Z,2.20
2022-08-12T07:10:48.692Z,2.70
2022-08-12T07:13:16.423Z,2.70
2022-08-12T07:15:43.444Z,2.20
2022-08-12T07:18:12.778Z,2.45
2022-08-12T07:20:53.206Z,2.60
2022-08-12T07:23:20.891Z,2.38
2022-08-12T07:25:48.450Z,2.15
2022-08-12T07:28:19.916Z,2.20
2022-08-12T07:30:48.210Z,2.47
2022-08-12T07:33:16.671Z,2.22
2022-08-12T07:35:44.461Z,2.35
2022-08-12T07:38:30.478Z,2.55
2022-08-12T07:41:02.486Z,2.60
2022-08-12T07:43:30.886Z,2.40
2022-08-12T07:45:58.568Z,2.30
2022-08-12T07:48:26.949Z,2.40
2022-08-12T07:50:54.482Z,2.63
2022-08-12T07:53:21.952Z,2.22
2022-08-12T07:55:49.310Z,2.28
2022-08-12T07:58:16.488Z,2.30
2022-08-12T08:00:43.615Z,2.25
2022-08-12T08:03:11.016Z,2.22
2022-08-12T08:05:38.380Z,2.08
2022-08-12T08:08:16.539Z,2.60
2022-08-12T08:10:44.768Z,2.95
2022-08-12T08:13:12.099Z,2.72
2022-08-12T08:18:28.139Z,2.63
2022-08-12T08:20:56.434Z,2.60
2022-08-12T08:23:29.336Z,2.80
2022-08-12T08:26:02.907Z,2.30
2022-08-12T08:28:30.046Z,2.45
2022-08-12T08:30:57.076Z,2.20
2022-08-12T08:34:09.460Z,2.63
2022-08-12T08:36:23.499Z,2.35
2022-08-12T08:38:57.700Z,2.00
2022-08-12T08:42:18.803Z,2.30
2022-08-12T08:44:12.944Z,3.00
2022-08-12T08:46:40.924Z,2.30
2022-08-12T08:49:08.094Z,2.47
2022-08-12T08:51:36.260Z,2.72
2022-08-12T08:54:03.485Z,2.58
2022-08-12T08:56:30.492Z,2.78
2022-08-12T08:58:58.817Z,2.50
2022-08-12T09:01:37.425Z,2.83
2022-08-12T09:05:12.658Z,2.90
2022-08-12T09:10:02.501Z,2.90
2022-08-12T09:12:28.819Z,3.35
2022-08-12T09:14:57.600Z,2.90
2022-08-12T09:17:24.686Z,3.00
2022-08-12T09:19:58.177Z,3.33
2022-08-12T09:25:25.755Z,3.55
2022-08-12T09:28:03.922Z,3.17
2022-08-12T09:30:44.120Z,3.28
2022-08-12T09:33:14.819Z,3.67
2022-08-12T09:35:46.658Z,3.10
2022-08-12T09:38:32.129Z,3.60
2022-08-12T09:42:07.824Z,3.45
2022-08-12T09:44:00.784Z,3.22
2022-08-12T09:46:28.726Z,3.30
2022-08-12T09:49:04.080Z,3.28
2022-08-12T09:51:43.688Z,3.50
2022-08-12T09:54:33.424Z,3.20
2022-08-12T09:57:03.687Z,3.05
2022-08-12T10:00:12.695Z,2.95
2022-08-12T10:02:44.708Z,2.80
2022-08-12T10:05:17.943Z,2.97
2022-08-12T10:07:47.930Z,2.80
2022-08-12T10:10:22.751Z,2.83
2022-08-12T10:13:07.029Z,2.75
2022-08-12T10:16:01.851Z,2.92
2022-08-12T10:18:27.233Z,3.50
2022-08-12T10:20:54.207Z,2.97
2022-08-12T10:23:39.288Z,2.85
2022-08-12T10:26:34.967Z,2.72
2022-08-12T10:29:02.694Z,3.03
2022-08-12T10:32:15.640Z,3.10
2022-08-12T10:34:26.099Z,2.53
2022-08-12T10:37:00.450Z,2.55
2022-08-12T10:40:01.075Z,2.80
2022-08-12T10:42:39.539Z,2.95
2022-08-12T10:45:14.325Z,2.25
2022-08-12T10:48:16.090Z,2.53
2022-08-12T10:51:00.928Z,2.60
2022-08-12T10:53:20.091Z,2.80
2022-08-12T10:55:51.097Z,2.65
2022-08-12T10:58:28.218Z,2.40
2022-08-12T11:01:48.921Z,2.72
2022-08-12T11:04:31.873Z,2.70
2022-08-12T11:07:08.366Z,2.60
2022-08-12T11:09:55.670Z,2.75
2022-08-12T11:12:55.208Z,3.00
2022-08-12T11:14:58.705Z,2.80
2022-08-12T11:17:34.418Z,2.53
2022-08-12T11:20:14.922Z,2.22
2022-08-12T11:22:42.681Z,2.58
2022-08-12T11:28:13.889Z,2.30
2022-08-12T11:30:42.352Z,2.47
2022-08-12T11:33:12.373Z,2.63
2022-08-12T11:35:56.295Z,3.15
2022-08-12T11:38:26.243Z,2.60
2022-08-12T11:40:54.080Z,2.60
2022-08-12T11:43:21.218Z,2.65
2022-08-12T11:45:53.182Z,2.92
2022-08-12T11:48:27.027Z,2.50
2022-08-12T11:50:55.014Z,2.70
2022-08-12T11:53:58.528Z,2.70
2022-08-12T11:56:11.422Z,2.70
2022-08-12T12:01:58.763Z,2.80
2022-08-12T12:02:02.015Z,3.72
2022-08-12T12:04:13.142Z,2.70
2022-08-12T12:07:07.243Z,2.70
2022-08-12T12:09:53.083Z,3.40
2022-08-12T12:12:23.370Z,3.28
2022-08-12T12:14:54.746Z,3.08
2022-08-12T12:17:25.116Z,3.22
2022-08-12T12:19:53.445Z,3.30
2022-08-12T12:22:23.081Z,2.80
2022-08-12T12:24:51.380Z,3.13
2022-08-12T12:27:19.465Z,3.35
2022-08-12T12:30:18.784Z,2.92
2022-08-12T12:32:34.642Z,2.60
2022-08-12T12:35:18.400Z,2.63
2022-08-12T12:38:04.057Z,2.38
2022-08-12T12:40:39.713Z,2.70
2022-08-12T12:43:08.650Z,2.85
2022-08-12T12:45:37.047Z,3.47
2022-08-12T12:48:12.140Z,2.50
2022-08-12T12:50:51.466Z,2.78
2022-08-12T12:54:05.132Z,2.47
2022-08-12T12:56:07.886Z,2.10
2022-08-12T12:58:35.303Z,2.90
2022-08-12T13:01:04.810Z,2.40
2022-08-12T13:03:49.852Z,2.13
2022-08-12T13:06:19.037Z,2.55
2022-08-12T13:08:48.169Z,2.42
2022-08-12T13:11:16.038Z,2.38
2022-08-12T13:14:07.475Z,2.30
2022-08-12T13:16:30.696Z,2.30
2022-08-12T13:18:58.455Z,2.05
2022-08-12T13:21:33.496Z,2.28
2022-08-12T13:24:09.915Z,2.45
2022-08-12T13:26:38.417Z,3.35
2022-08-12T13:29:05.912Z,2.35
2022-08-12T13:31:46.567Z,2.95
2022-08-12T13:34:32.316Z,2.50
2022-08-12T13:37:03.780Z,2.08
2022-08-12T13:39:31.566Z,2.50
2022-08-12T13:42:00.156Z,2.50
2022-08-12T13:44:29.315Z,2.38
2022-08-12T13:46:58.998Z,2.70
2022-08-12T13:49:54.913Z,2.58
2022-08-12T13:52:16.078Z,2.42
2022-08-12T13:54:43.080Z,2.40
2022-08-12T13:57:23.639Z,2.58
2022-08-12T13:59:55.419Z,2.42
2022-08-12T14:02:24.263Z,2.45
2022-08-12T14:04:56.014Z,2.47
2022-08-12T14:07:25.972Z,1.90
2022-08-12T14:09:54.557Z,3.00
2022-08-12T14:12:21.631Z,2.50
2022-08-12T14:14:51.295Z,2.67
2022-08-12T14:17:19.963Z,2.42
2022-08-12T14:19:53.661Z,2.78
2022-08-12T14:22:26.020Z,2.88
2022-08-12T14:24:53.519Z,2.47
2022-08-12T14:28:04.681Z,2.25
2022-08-12T14:30:15.773Z,2.28
2022-08-12T14:32:50.907Z,2.80
2022-08-12T14:35:21.669Z,2.80
2022-08-12T14:37:56.575Z,2.53
2022-08-12T14:40:27.470Z,2.80
2022-08-12T14:42:56.918Z,3.15
2022-08-12T14:45:24.756Z,3.00
2022-08-12T14:48:14.858Z,2.47
2022-08-12T14:52:10.716Z,2.97
2022-08-12T14:57:05.565Z,2.63
2022-08-12T14:59:23.385Z,2.65
2022-08-12T15:01:52.014Z,2.55
2022-08-12T15:04:19.932Z,2.95
2022-08-12T15:06:52.014Z,2.80
2022-08-12T15:09:28.617Z,2.08
2022-08-12T15:12:03.069Z,2.20
2022-08-12T15:14:32.022Z,3.40
2022-08-12T15:17:00.649Z,2.67
2022-08-12T15:20:28.661Z,2.15
2022-08-12T15:22:38.922Z,2.58
2022-08-12T15:25:07.526Z,3.67
2022-08-12T15:28:03.851Z,2.35
2022-08-12T15:30:23.957Z,2.17
2022-08-12T15:32:52.143Z,2.40
2022-08-12T15:35:20.710Z,2.47
2022-08-12T15:38:09.654Z,2.58
2022-08-12T15:40:46.925Z,2.80
2022-08-12T15:44:14.176Z,6.70
2022-08-12T15:46:05.101Z,3.20
2022-08-12T15:48:32.416Z,2.55
2022-08-12T15:51:00.463Z,3.15
2022-08-12T15:53:28.379Z,2.90
2022-08-12T15:56:00.825Z,2.35
2022-08-12T15:58:28.916Z,3.40
2022-08-12T16:01:00.978Z,2.65
2022-08-12T16:03:46.102Z,2.60
2022-08-12T16:06:36.391Z,2.80
2022-08-12T16:09:03.945Z,2.92
2022-08-12T16:11:43.384Z,2.40
2022-08-12T16:14:10.637Z,2.67
2022-08-12T16:16:38.159Z,2.55
2022-08-12T16:19:18.788Z,2.92
2022-08-12T16:21:58.238Z,2.97
2022-08-12T16:26:54.453Z,3.17
2022-08-12T16:29:22.737Z,2.97
2022-08-12T16:31:49.910Z,2.70
2022-08-12T16:34:26.233Z,4.00
2022-08-12T16:37:08.074Z,5.53
2022-08-12T16:39:59.927Z,3.30
2022-08-12T16:42:23.326Z,3.45
2022-08-12T16:44:59.795Z,3.20
2022-08-12T16:47:29.306Z,3.55
2022-08-12T16:50:16.611Z,3.60
2022-08-12T16:52:50.005Z,3.42
2022-08-12T16:55:18.719Z,3.72
2022-08-12T16:57:46.212Z,3.47
2022-08-12T17:00:15.038Z,3.30
2022-08-12T17:02:50.676Z,3.20
2022-08-12T17:05:31.193Z,2.80
2022-08-12T17:08:00.513Z,3.28
2022-08-12T17:10:36.196Z,3.40
2022-08-12T17:13:09.921Z,2.60
2022-08-12T17:15:56.849Z,3.05
2022-08-12T17:18:42.291Z,3.20
2022-08-12T17:21:15.366Z,5.10
2022-08-12T17:23:53.839Z,3.20
2022-08-12T17:26:28.457Z,3.13
2022-08-12T17:28:59.855Z,4.00
2022-08-12T17:32:01.754Z,4.57
2022-08-12T17:34:17.701Z,3.80
2022-08-12T17:36:44.945Z,4.68
2022-08-12T17:39:16.189Z,3.65
2022-08-12T17:41:56.403Z,4.00
2022-08-12T17:44:24.779Z,4.18
2022-08-12T17:46:53.836Z,4.05
2022-08-12T17:50:03.342Z,4.47
2022-08-12T17:52:10.068Z,3.55
2022-08-12T17:54:37.707Z,4.22
2022-08-12T17:57:16.045Z,3.42
2022-08-12T17:59:48.119Z,3.40
2022-08-12T18:02:17.993Z,3.20
2022-08-12T18:05:09.422Z,3.22
2022-08-12T18:07:39.476Z,3.50
2022-08-12T18:10:08.527Z,3.60
2022-08-12T18:12:36.334Z,3.20
2022-08-12T18:15:08.955Z,3.60
2022-08-12T18:17:39.423Z,3.65
2022-08-12T18:20:10.575Z,4.97
2022-08-12T18:22:44.261Z,5.00
2022-08-12T18:26:15.907Z,5.60
2022-08-12T18:28:15.672Z,4.93
2022-08-12T18:30:52.748Z,5.45
2022-08-12T18:33:22.456Z,4.78
2022-08-12T18:35:53.762Z,4.63
2022-08-12T18:38:24.554Z,4.10
2022-08-12T18:40:54.811Z,4.63
2022-08-12T18:43:22.314Z,4.68
2022-08-12T18:45:57.164Z,4.43
2022-08-12T18:48:26.934Z,3.92
2022-08-12T18:51:07.398Z,5.05
2022-08-12T18:54:07.240Z,5.15
2022-08-12T18:56:33.352Z,4.20
2022-08-12T18:59:02.904Z,3.95
2022-08-12T19:02:13.463Z,4.15
2022-08-12T19:04:18.635Z,4.25
2022-08-12T19:06:46.441Z,4.38
2022-08-12T19:09:15.058Z,4.10
2022-08-12T19:11:45.255Z,3.70
2022-08-12T19:14:14.847Z,3.90
2022-08-12T19:16:41.917Z,4.07
2022-08-12T19:19:10.011Z,4.43
2022-08-12T19:21:38.572Z,4.18
2022-08-12T19:24:07.530Z,4.20
2022-08-12T19:26:35.716Z,4.13
2022-08-12T19:29:04.799Z,4.93
2022-08-12T19:31:57.406Z,4.82
2022-08-12T19:34:37.750Z,6.95
2022-08-12T19:37:09.967Z,7.15
2022-08-12T19:40:07.805Z,6.55
2022-08-12T19:42:27.537Z,5.70
2022-08-12T19:44:57.276Z,5.97
2022-08-12T19:47:25.460Z,6.53
2022-08-12T19:49:56.873Z,6.68
2022-08-12T19:52:33.084Z,5.30
2022-08-12T19:55:01.745Z,5.63
2022-08-12T19:57:29.973Z,5.00
2022-08-12T20:00:03.436Z,5.95
2022-08-12T20:02:33.071Z,5.90
2022-08-12T20:06:05.932Z,5.40
2022-08-12T20:07:56.847Z,6.15
2022-08-12T20:10:35.320Z,4.80
2022-08-12T20:13:17.914Z,5.43
2022-08-12T20:15:46.551Z,4.72
2022-08-12T20:18:44.419Z,5.43
2022-08-12T20:21:07.676Z,5.32
2022-08-12T20:23:59.740Z,4.93
2022-08-12T20:26:27.716Z,4.53
2022-08-12T20:28:55.245Z,4.85
2022-08-12T20:31:22.375Z,5.15
2022-08-12T20:33:56.437Z,5.05
2022-08-12T20:36:42.887Z,5.57
2022-08-12T20:39:35.979Z,5.10
2022-08-12T20:42:04.184Z,5.15
2022-08-12T20:47:17.822Z,5.25
2022-08-12T20:49:47.065Z,5.13
2022-08-12T20:52:24.327Z,5.57
2022-08-12T20:54:52.139Z,5.30
2022-08-12T20:57:21.960Z,5.30
2022-08-12T20:59:50.898Z,6.32
2022-08-12T21:02:24.513Z,5.80
2022-08-12T21:04:52.345Z,5.60
2022-08-12T21:07:23.467Z,7.00
2022-08-12T21:09:51.856Z,6.75
2022-08-12T21:12:30.924Z,5.97
2022-08-12T21:15:23.540Z,6.72
2022-08-12T21:18:11.420Z,6.20
2022-08-12T21:20:50.136Z,6.07
2022-08-12T21:23:18.961Z,6.68
2022-08-12T21:25:46.492Z,6.75
2022-08-12T21:28:14.681Z,6.25
2022-08-12T21:30:42.365Z,6.07
2022-08-12T21:33:31.027Z,6.05
2022-08-12T21:35:59.168Z,6.20
2022-08-12T21:38:26.191Z,5.38
2022-08-12T21:41:09.113Z,6.22
2022-08-12T21:43:44.900Z,5.47
2022-08-12T21:46:33.706Z,5.45
2022-08-12T21:49:04.621Z,6.53
2022-08-12T21:51:49.038Z,5.43
2022-08-12T21:54:21.881Z,5.78
2022-08-12T21:56:51.373Z,6.10
2022-08-12T21:59:21.715Z,6.47
2022-08-12T22:01:49.732Z,6.28
2022-08-12T22:04:17.990Z,6.97
2022-08-12T22:06:45.016Z,6.85
2022-08-12T22:09:16.437Z,6.57
2022-08-12T22:11:56.020Z,5.97
2022-08-12T22:14:29.918Z,6.82
2022-08-12T22:17:00.571Z,6.30
2022-08-12T22:19:28.128Z,6.35
2022-08-12T22:21:56.198Z,6.40
2022-08-12T22:24:30.016Z,6.40
2022-08-12T22:27:17.990Z,6.22
2022-08-12T22:29:50.747Z,6.10
2022-08-12T22:32:18.004Z,6.90
2022-08-12T22:34:47.367Z,6.68
2022-08-12T22:37:19.853Z,6.15
2022-08-12T22:39:49.170Z,7.18
2022-08-12T22:42:19.805Z,6.60
2022-08-12T22:44:54.832Z,6.65
2022-08-12T22:47:54.040Z,6.78
2022-08-12T22:50:10.199Z,7.53
2022-08-12T22:52:59.128Z,7.53
2022-08-12T22:55:53.402Z,7.05
2022-08-12T22:58:14.410Z,6.45
2022-08-12T23:00:43.453Z,7.85
2022-08-12T23:03:48.715Z,6.88
2022-08-12T23:06:10.341Z,7.95
2022-08-12T23:08:38.335Z,7.55
2022-08-12T23:11:08.395Z,7.57
2022-08-12T23:13:43.884Z,7.90
2022-08-12T23:16:28.239Z,7.57
2022-08-12T23:19:10.806Z,7.45
2022-08-12T23:22:06.192Z,7.45
2022-08-12T23:24:39.059Z,7.93
2022-08-12T23:27:08.840Z,7.45
2022-08-12T23:29:43.779Z,8.32
2022-08-12T23:32:36.036Z,7.43
2022-08-12T23:35:06.715Z,8.73
2022-08-12T23:37:47.828Z,7.93
2022-08-12T23:40:24.707Z,8.45
2022-08-12T23:42:53.070Z,8.38
2022-08-12T23:45:30.694Z,7.85
2022-08-12T23:48:01.322Z,8.52
2022-08-12T23:50:33.748Z,8.32
2022-08-12T23:53:05.570Z,8.02
2022-08-12T23:55:40.486Z,7.63
2022-08-12T23:58:18.140Z,7.68
